createdAt,value
2022-08-05T00:01:00.967Z,23.91
2022-08-05T00:03:49.082Z,23.89
2022-08-05T00:06:27.910Z,23.86
2022-08-05T00:09:00.638Z,23.86
2022-08-05T00:11:35.163Z,23.83
2022-08-05T00:14:19.442Z,23.80
2022-08-05T00:16:53.015Z,23.79
2022-08-05T00:19:23.250Z,23.78
2022-08-05T00:21:54.601Z,23.78
2022-08-05T00:24:24.637Z,23.77
2022-08-05T00:26:53.342Z,23.73
2022-08-05T00:29:37.718Z,23.69
2022-08-05T00:32:15.394Z,23.68
2022-08-05T00:35:04.726Z,23.67
2022-08-05T00:37:52.571Z,23.63
2022-08-05T00:40:29.294Z,23.62
2022-08-05T00:43:00.454Z,23.60
2022-08-05T00:45:38.420Z,23.59
2022-08-05T00:48:14.910Z,23.59
2022-08-05T00:50:46.100Z,23.58
2022-08-05T00:54:00.764Z,23.58
2022-08-05T00:56:07.765Z,23.51
2022-08-05T00:58:35.131Z,23.54
2022-08-05T01:01:11.493Z,23.53
2022-08-05T01:03:40.240Z,23.51
2022-08-05T01:06:15.254Z,23.48
2022-08-05T01:08:44.454Z,23.49
2022-08-05T01:11:36.863Z,23.46
2022-08-05T01:14:39.255Z,23.41
2022-08-05T01:17:15.708Z,23.38
2022-08-05T01:20:02.938Z,23.38
2022-08-05T01:22:46.991Z,23.39
2022-08-05T01:26:02.568Z,23.37
2022-08-05T01:28:57.060Z,23.35
2022-08-05T01:31:55.767Z,23.33
2022-08-05T01:34:35.783Z,23.30
2022-08-05T01:37:24.445Z,23.30
2022-08-05T01:39:58.799Z,23.31
2022-08-05T01:42:29.829Z,23.35
2022-08-05T01:45:02.246Z,23.32
2022-08-05T01:47:39.019Z,23.36
2022-08-05T01:50:29.722Z,23.38
2022-08-05T01:53:09.783Z,23.34
2022-08-05T01:55:47.952Z,23.35
2022-08-05T01:58:16.950Z,23.37
2022-08-05T02:00:51.094Z,23.38
2022-08-05T02:03:48.248Z,23.37
2022-08-05T02:06:36.980Z,23.36
2022-08-05T02:09:04.697Z,23.38
2022-08-05T02:11:52.324Z,23.42
2022-08-05T02:14:32.763Z,23.44
2022-08-05T02:17:26.207Z,23.40
2022-08-05T02:20:09.239Z,23.34
2022-08-05T02:22:55.738Z,23.22
2022-08-05T02:25:50.077Z,23.02
2022-08-05T02:28:35.239Z,22.86
2022-08-05T02:31:16.720Z,22.69
2022-08-05T02:37:55.008Z,22.46
2022-08-05T02:40:27.516Z,22.47
2022-08-05T02:42:56.615Z,22.48
2022-08-05T02:45:52.752Z,22.50
2022-08-05T02:48:29.778Z,22.49
2022-08-05T02:51:05.693Z,22.53
2022-08-05T02:53:41.477Z,22.56
2022-08-05T02:56:15.889Z,22.60
2022-08-05T02:58:51.176Z,22.56
2022-08-05T03:01:27.322Z,22.51
2022-08-05T03:04:02.121Z,22.46
2022-08-05T03:06:54.599Z,22.47
2022-08-05T03:09:36.203Z,22.46
2022-08-05T03:12:08.678Z,22.48
2022-08-05T03:14:45.672Z,22.50
2022-08-05T03:17:20.195Z,22.58
2022-08-05T03:19:54.761Z,22.61
2022-08-05T03:22:32.469Z,22.63
2022-08-05T03:25:11.649Z,22.69
2022-08-05T03:27:59.212Z,22.69
2022-08-05T03:30:34.342Z,22.71
2022-08-05T03:33:06.109Z,22.79
2022-08-05T03:35:40.924Z,22.78
2022-08-05T03:38:15.710Z,22.81
2022-08-05T03:40:49.418Z,22.83
2022-08-05T03:44:08.401Z,22.85
2022-08-05T03:46:08.079Z,22.80
2022-08-05T03:48:41.284Z,22.79
2022-08-05T03:52:36.992Z,22.75
2022-08-05T03:55:52.892Z,22.69
2022-08-05T03:57:48.160Z,22.59
2022-08-05T04:00:46.466Z,22.58
2022-08-05T04:03:28.620Z,22.57
2022-08-05T04:06:03.295Z,22.54
2022-08-05T04:08:36.312Z,22.56
2022-08-05T04:11:11.833Z,22.55
2022-08-05T04:13:51.194Z,22.57
2022-08-05T04:16:25.420Z,22.54
2022-08-05T04:19:03.691Z,22.56
2022-08-05T04:22:09.351Z,22.58
2022-08-05T04:24:32.222Z,22.55
2022-08-05T04:27:04.027Z,22.57
2022-08-05T04:29:32.973Z,22.56
2022-08-05T04:32:01.319Z,22.57
2022-08-05T04:34:57.505Z,22.58
2022-08-05T04:38:01.232Z,22.57
2022-08-05T04:40:38.151Z,22.58
2022-08-05T04:43:22.071Z,22.59
2022-08-05T04:45:58.900Z,22.60
2022-08-05T04:48:41.631Z,22.65
2022-08-05T04:51:19.367Z,22.69
2022-08-05T04:53:54.247Z,22.72
2022-08-05T04:56:34.655Z,22.71
2022-08-05T04:59:21.789Z,22.72
2022-08-05T05:02:07.670Z,22.75
2022-08-05T05:05:03.260Z,22.76
2022-08-05T05:07:37.443Z,22.76
2022-08-05T05:10:18.772Z,22.78
2022-08-05T05:12:50.558Z,22.78
2022-08-05T05:15:57.341Z,22.80
2022-08-05T05:18:45.392Z,22.80
2022-08-05T05:21:39.991Z,22.81
2022-08-05T05:24:17.655Z,22.84
2022-08-05T05:26:52.290Z,22.83
2022-08-05T05:30:33.708Z,22.83
2022-08-05T05:32:45.032Z,22.87
2022-08-05T05:38:13.825Z,22.89
2022-08-05T05:41:03.387Z,22.92
2022-08-05T05:43:57.130Z,22.91
2022-08-05T05:46:30.423Z,22.93
2022-08-05T05:49:06.445Z,22.96
2022-08-05T05:51:52.530Z,22.95
2022-08-05T05:54:50.537Z,22.99
2022-08-05T05:57:19.936Z,22.97
2022-08-05T05:59:52.849Z,22.98
2022-08-05T06:02:40.092Z,22.97
2022-08-05T06:05:20.449Z,23.00
2022-08-05T06:07:57.615Z,23.01
2022-08-05T06:10:34.516Z,23.00
2022-08-05T06:13:17.260Z,23.01
2022-08-05T06:16:30.167Z,23.01
2022-08-05T06:18:39.448Z,23.02
2022-08-05T06:21:16.801Z,23.06
2022-08-05T06:23:53.129Z,23.04
2022-08-05T06:26:27.058Z,23.03
2022-08-05T06:29:22.693Z,23.04
2022-08-05T06:31:57.464Z,23.05
2022-08-05T06:37:10.754Z,23.08
2022-08-05T06:39:53.589Z,23.09
2022-08-05T06:42:28.723Z,23.11
2022-08-05T06:44:55.953Z,23.13
2022-08-05T06:48:36.960Z,23.14
2022-08-05T06:50:17.299Z,23.15
2022-08-05T06:52:44.888Z,23.20
2022-08-05T06:55:46.111Z,23.18
2022-08-05T06:58:34.837Z,23.17
2022-08-05T07:01:09.538Z,23.19
2022-08-05T07:03:44.443Z,23.17
2022-08-05T07:06:23.599Z,23.13
2022-08-05T07:08:55.007Z,23.12
2022-08-05T07:11:37.329Z,23.12
2022-08-05T07:14:34.335Z,23.13
2022-08-05T07:18:00.997Z,23.08
2022-08-05T07:20:32.815Z,23.04
2022-08-05T07:23:00.987Z,23.04
2022-08-05T07:25:55.217Z,23.03
2022-08-05T07:28:22.649Z,22.93
2022-08-05T07:31:15.678Z,22.83
2022-08-05T07:33:45.223Z,22.76
2022-08-05T07:36:35.315Z,22.67
2022-08-05T07:39:24.335Z,22.63
2022-08-05T07:42:13.738Z,22.54
2022-08-05T07:44:58.708Z,22.53
2022-08-05T07:47:55.695Z,22.47
2022-08-05T07:50:33.518Z,22.42
2022-08-05T07:53:08.073Z,22.39
2022-08-05T07:56:06.140Z,22.38
2022-08-05T07:58:58.564Z,22.32
2022-08-05T08:01:32.250Z,22.27
2022-08-05T08:04:03.039Z,22.24
2022-08-05T08:06:36.939Z,22.24
2022-08-05T08:09:04.290Z,22.18
2022-08-05T08:11:50.287Z,22.15
2022-08-05T08:14:40.828Z,22.10
2022-08-05T08:17:15.728Z,22.08
2022-08-05T08:20:21.653Z,22.09
2022-08-05T08:22:51.487Z,22.06
2022-08-05T08:25:59.401Z,22.01
2022-08-05T08:28:36.547Z,21.96
2022-08-05T08:31:17.327Z,21.97
2022-08-05T08:33:51.397Z,21.96
2022-08-05T08:36:52.533Z,21.93
2022-08-05T08:39:27.711Z,21.89
2022-08-05T08:42:10.729Z,21.83
2022-08-05T08:45:22.578Z,21.75
2022-08-05T08:48:12.379Z,21.73
2022-08-05T08:51:03.355Z,21.73
2022-08-05T08:53:50.368Z,21.73
2022-08-05T08:56:27.144Z,21.72
2022-08-05T08:59:05.855Z,21.71
2022-08-05T09:01:57.345Z,21.72
2022-08-05T09:07:39.559Z,21.65
2022-08-05T09:10:28.020Z,21.59
2022-08-05T09:13:16.758Z,21.57
2022-08-05T09:15:58.810Z,21.54
2022-08-05T09:18:29.448Z,21.49
2022-08-05T09:20:58.781Z,21.50
2022-08-05T09:23:43.319Z,21.52
2022-08-05T09:26:24.847Z,21.51
2022-08-05T09:29:19.180Z,21.51
2022-08-05T09:32:46.501Z,21.56
2022-08-05T09:35:00.695Z,21.62
2022-08-05T09:38:11.991Z,21.63
2022-08-05T09:40:52.441Z,21.74
2022-08-05T09:43:56.447Z,21.83
2022-08-05T09:46:35.202Z,21.94
2022-08-05T09:49:54.875Z,22.03
2022-08-05T09:52:32.045Z,22.16
2022-08-05T09:55:57.261Z,22.28
2022-08-05T09:58:22.985Z,22.41
2022-08-05T10:01:31.615Z,22.51
2022-08-05T10:04:29.327Z,22.65
2022-08-05T10:07:20.389Z,22.75
2022-08-05T10:10:14.166Z,22.86
2022-08-05T10:15:58.393Z,23.03
2022-08-05T10:18:41.264Z,23.14
2022-08-05T10:21:18.860Z,23.26
2022-08-05T10:24:10.919Z,23.40
2022-08-05T10:26:52.388Z,23.56
2022-08-05T10:30:41.312Z,23.71
2022-08-05T10:33:02.200Z,23.94
2022-08-05T10:35:14.762Z,24.13
2022-08-05T10:37:55.437Z,24.29
2022-08-05T10:40:58.433Z,24.48
2022-08-05T10:44:00.759Z,24.67
2022-08-05T10:46:55.938Z,25.02
2022-08-05T10:49:33.338Z,25.31
2022-08-05T10:52:49.834Z,25.75
2022-08-05T10:55:19.992Z,26.25
2022-08-05T10:58:08.676Z,26.64
2022-08-05T11:00:55.271Z,26.93
2022-08-05T11:03:58.387Z,27.19
2022-08-05T11:06:32.092Z,27.38
2022-08-05T11:09:47.518Z,27.62
2022-08-05T11:12:55.733Z,27.98
2022-08-05T11:16:00.663Z,28.53
2022-08-05T11:18:51.736Z,29.29
2022-08-05T11:22:24.113Z,29.94
2022-08-05T11:26:04.382Z,30.50
2022-08-05T11:28:36.013Z,30.78
2022-08-05T11:31:07.286Z,31.05
2022-08-05T11:34:08.078Z,31.53
2022-08-05T11:36:54.859Z,32.05
2022-08-05T11:40:03.268Z,32.54
2022-08-05T11:42:37.815Z,33.07
2022-08-05T11:46:15.238Z,33.57
2022-08-05T11:48:16.235Z,34.04
2022-08-05T11:51:10.956Z,34.14
2022-08-05T11:53:42.721Z,34.07
2022-08-05T11:56:41.019Z,34.08
2022-08-05T11:59:49.507Z,34.11
2022-08-05T12:02:30.666Z,34.14
2022-08-05T12:05:17.973Z,34.13
2022-08-05T12:08:03.443Z,34.05
2022-08-05T12:10:45.756Z,33.99
2022-08-05T12:13:48.048Z,33.88
2022-08-05T12:16:25.535Z,33.82
2022-08-05T12:19:08.598Z,33.81
2022-08-05T12:21:49.581Z,33.86
2022-08-05T12:24:18.908Z,33.92
2022-08-05T12:26:57.731Z,34.02
2022-08-05T12:29:27.452Z,34.07
2022-08-05T12:32:09.614Z,34.08
2022-08-05T12:34:39.998Z,34.10
2022-08-05T12:37:17.682Z,34.06
2022-08-05T12:42:33.347Z,34.10
2022-08-05T12:45:11.733Z,34.18
2022-08-05T12:47:43.477Z,34.18
2022-08-05T12:50:34.137Z,34.15
2022-08-05T12:53:01.611Z,34.13
2022-08-05T12:55:32.548Z,34.08
2022-08-05T12:58:49.514Z,34.04
2022-08-05T13:02:04.442Z,34.04
2022-08-05T13:03:55.469Z,34.02
2022-08-05T13:06:27.199Z,34.01
2022-08-05T13:09:09.303Z,33.90
2022-08-05T13:12:01.314Z,33.62
2022-08-05T13:14:41.112Z,33.24
2022-08-05T13:17:32.015Z,32.90
2022-08-05T13:20:32.150Z,32.61
2022-08-05T13:23:07.268Z,32.38
2022-08-05T13:25:51.945Z,32.15
2022-08-05T13:28:44.080Z,31.89
2022-08-05T13:31:19.131Z,31.69
2022-08-05T13:34:22.767Z,31.55
2022-08-05T13:36:56.281Z,31.41
2022-08-05T13:40:16.297Z,31.31
2022-08-05T13:42:39.548Z,31.06
2022-08-05T13:45:12.124Z,30.74
2022-08-05T13:48:08.723Z,30.41
2022-08-05T13:50:28.711Z,29.95
2022-08-05T13:52:55.823Z,29.54
2022-08-05T13:55:40.864Z,29.17
2022-08-05T13:58:14.082Z,28.78
2022-08-05T14:01:01.412Z,28.38
2022-08-05T14:03:32.397Z,28.08
2022-08-05T14:06:26.926Z,27.78
2022-08-05T14:09:00.245Z,27.55
2022-08-05T14:12:04.241Z,27.35
2022-08-05T14:14:51.408Z,27.12
2022-08-05T14:20:17.689Z,26.99
2022-08-05T14:22:50.078Z,27.01
2022-08-05T14:25:53.890Z,27.01
2022-08-05T14:28:26.970Z,27.02
2022-08-05T14:31:02.664Z,27.04
2022-08-05T14:33:32.538Z,27.14
2022-08-05T14:36:30.609Z,27.28
2022-08-05T14:39:11.211Z,27.40
2022-08-05T14:42:08.652Z,27.57
2022-08-05T14:44:40.149Z,27.74
2022-08-05T14:48:03.543Z,27.94
2022-08-05T14:50:42.379Z,28.10
2022-08-05T14:53:12.228Z,28.26
2022-08-05T14:55:52.554Z,28.37
2022-08-05T14:58:22.881Z,28.48
2022-08-05T15:00:59.690Z,28.59
2022-08-05T15:03:39.337Z,28.66
2022-08-05T15:06:15.468Z,28.69
2022-08-05T15:09:07.321Z,28.77
2022-08-05T15:11:51.556Z,28.83
2022-08-05T15:14:48.247Z,28.90
2022-08-05T15:17:46.289Z,29.02
2022-08-05T15:20:17.109Z,29.11
2022-08-05T15:22:54.267Z,29.19
2022-08-05T15:25:52.772Z,29.23
2022-08-05T15:28:27.990Z,29.15
2022-08-05T15:31:35.166Z,29.06
2022-08-05T15:34:31.461Z,28.92
2022-08-05T15:37:27.392Z,28.71
2022-08-05T15:40:58.661Z,28.60
2022-08-05T15:43:12.724Z,28.47
2022-08-05T15:46:00.327Z,28.40
2022-08-05T15:48:37.246Z,28.34
2022-08-05T15:51:09.864Z,28.33
2022-08-05T15:53:51.248Z,28.28
2022-08-05T15:56:24.282Z,28.27
2022-08-05T15:59:02.778Z,28.27
2022-08-05T16:01:52.296Z,28.24
2022-08-05T16:04:25.815Z,28.19
2022-08-05T16:07:00.895Z,28.20
2022-08-05T16:09:35.962Z,28.15
2022-08-05T16:12:19.902Z,28.10
2022-08-05T16:15:07.524Z,28.03
2022-08-05T16:17:57.709Z,28.00
2022-08-05T16:20:31.102Z,27.94
2022-08-05T16:23:09.278Z,27.85
2022-08-05T16:25:46.248Z,27.76
2022-08-05T16:28:18.037Z,27.68
2022-08-05T16:30:59.131Z,27.59
2022-08-05T16:33:41.622Z,27.53
2022-08-05T16:36:23.612Z,27.44
2022-08-05T16:38:58.161Z,27.35
2022-08-05T16:42:14.867Z,27.31
2022-08-05T16:44:44.905Z,27.28
2022-08-05T16:47:29.064Z,27.23
2022-08-05T16:50:06.478Z,27.22
2022-08-05T16:53:11.940Z,27.19
2022-08-05T16:59:01.001Z,27.11
2022-08-05T17:01:54.860Z,27.10
2022-08-05T17:04:27.450Z,27.11
2022-08-05T17:06:56.920Z,27.16
2022-08-05T17:09:57.219Z,27.17
2022-08-05T17:12:22.560Z,27.17
2022-08-05T17:15:07.626Z,27.21
2022-08-05T17:17:42.416Z,27.22
2022-08-05T17:20:16.512Z,27.24
2022-08-05T17:22:55.462Z,27.26
2022-08-05T17:26:02.625Z,27.22
2022-08-05T17:28:41.872Z,27.16
2022-08-05T17:31:24.711Z,27.12
2022-08-05T17:34:17.979Z,27.07
2022-08-05T17:36:48.142Z,27.04
2022-08-05T17:39:23.746Z,27.01
2022-08-05T17:42:17.708Z,26.99
2022-08-05T17:44:50.710Z,26.97
2022-08-05T17:47:27.018Z,26.90
2022-08-05T17:50:22.653Z,26.86
2022-08-05T17:53:04.774Z,26.83
2022-08-05T17:55:37.825Z,26.78
2022-08-05T17:58:16.172Z,26.78
2022-08-05T18:00:50.665Z,26.74
2022-08-05T18:03:58.425Z,26.69
2022-08-05T18:06:20.553Z,26.57
2022-08-05T18:09:03.574Z,26.51
2022-08-05T18:11:33.879Z,26.41
2022-08-05T18:14:07.567Z,26.30
2022-08-05T18:16:43.775Z,26.23
2022-08-05T18:19:27.178Z,26.12
2022-08-05T18:22:11.686Z,26.02
2022-08-05T18:24:52.354Z,25.90
2022-08-05T18:27:27.894Z,25.85
2022-08-05T18:29:58.981Z,25.74
2022-08-05T18:32:36.453Z,25.70
2022-08-05T18:35:18.785Z,25.60
2022-08-05T18:38:00.206Z,25.54
2022-08-05T18:40:34.618Z,25.44
2022-08-05T18:43:26.392Z,25.72
2022-08-05T18:46:26.093Z,25.48
2022-08-05T18:49:19.860Z,25.22
2022-08-05T18:52:08.630Z,25.06
2022-08-05T18:54:45.748Z,24.95
2022-08-05T18:57:27.419Z,24.89
2022-08-05T19:00:20.197Z,24.84
2022-08-05T19:03:03.589Z,24.75
2022-08-05T19:06:13.454Z,24.70
2022-08-05T19:08:46.101Z,24.63
2022-08-05T19:11:59.244Z,24.57
2022-08-05T19:14:44.736Z,24.42
2022-08-05T19:17:25.327Z,24.34
2022-08-05T19:20:08.689Z,24.28
2022-08-05T19:22:39.874Z,24.21
2022-08-05T19:25:21.549Z,24.15
2022-08-05T19:28:00.566Z,24.03
2022-08-05T19:30:33.067Z,23.96
2022-08-05T19:33:35.951Z,23.88
2022-08-05T19:36:22.518Z,23.76
2022-08-05T19:38:51.362Z,23.69
2022-08-05T19:41:58.323Z,23.61
2022-08-05T19:44:13.236Z,23.48
2022-08-05T19:46:50.353Z,23.41
2022-08-05T19:49:26.719Z,23.28
2022-08-05T19:52:30.448Z,23.18
2022-08-05T19:55:00.607Z,23.09
2022-08-05T19:57:49.104Z,23.00
2022-08-05T20:00:31.968Z,22.91
2022-08-05T20:02:59.805Z,22.87
2022-08-05T20:05:43.114Z,22.80
2022-08-05T20:08:14.793Z,22.72
2022-08-05T20:10:43.166Z,22.66
2022-08-05T20:13:12.141Z,22.61
2022-08-05T20:15:52.620Z,22.57
2022-08-05T20:18:41.267Z,22.50
2022-08-05T20:21:17.833Z,22.42
2022-08-05T20:23:53.390Z,22.35
2022-08-05T20:26:27.521Z,22.28
2022-08-05T20:29:00.798Z,22.23
2022-08-05T20:31:43.022Z,22.12
2022-08-05T20:34:18.141Z,22.06
2022-08-05T20:36:49.098Z,21.98
2022-08-05T20:39:21.334Z,21.95
2022-08-05T20:41:50.214Z,21.91
2022-08-05T20:44:29.760Z,21.86
2022-08-05T20:47:18.192Z,21.78
2022-08-05T20:49:47.584Z,21.71
2022-08-05T20:52:18.239Z,21.67
2022-08-05T20:54:59.719Z,21.61
2022-08-05T20:57:43.715Z,21.55
2022-08-05T21:00:41.563Z,21.48
2022-08-05T21:03:09.430Z,21.42
2022-08-05T21:05:55.492Z,21.36
2022-08-05T21:08:26.682Z,21.31
2022-08-05T21:11:10.043Z,21.24
2022-08-05T21:13:47.869Z,21.22
2022-08-05T21:16:29.765Z,21.18
2022-08-05T21:18:59.977Z,21.12
2022-08-05T21:21:39.043Z,21.11
2022-08-05T21:24:15.268Z,21.53
2022-08-05T21:26:47.221Z,21.34
2022-08-05T21:29:26.672Z,21.14
2022-08-05T21:32:01.800Z,21.04
2022-08-05T21:34:33.125Z,20.96
2022-08-05T21:37:02.626Z,20.90
2022-08-05T21:39:30.040Z,20.86
2022-08-05T21:42:01.691Z,20.82
2022-08-05T21:44:32.442Z,20.78
2022-08-05T21:47:00.294Z,20.76
2022-08-05T21:50:00.385Z,20.72
2022-08-05T21:52:28.039Z,20.67
2022-08-05T21:54:57.129Z,20.61
2022-08-05T21:57:32.598Z,20.57
2022-08-05T22:00:11.413Z,20.51
2022-08-05T22:02:39.149Z,20.51
2022-08-05T22:05:09.556Z,20.48
2022-08-05T22:07:58.839Z,20.43
2022-08-05T22:10:28.618Z,20.39
2022-08-05T22:12:59.149Z,20.35
2022-08-05T22:16:00.285Z,20.30
2022-08-05T22:18:25.762Z,20.22
2022-08-05T22:20:56.678Z,20.21
2022-08-05T22:24:01.853Z,20.18
2022-08-05T22:26:50.496Z,20.11
2022-08-05T22:29:19.035Z,20.09
2022-08-05T22:31:59.328Z,20.05
2022-08-05T22:34:31.594Z,20.03
2022-08-05T22:37:03.869Z,20.01
2022-08-05T22:39:34.141Z,19.99
2022-08-05T22:42:12.115Z,19.93
2022-08-05T22:44:48.612Z,19.90
2022-08-05T22:47:29.795Z,19.91
2022-08-05T22:50:22.808Z,19.89
2022-08-05T22:52:52.542Z,19.87
2022-08-05T22:55:26.586Z,19.83
2022-08-05T22:58:14.653Z,19.78
2022-08-05T23:00:41.813Z,19.75
2022-08-05T23:03:08.906Z,19.72
2022-08-05T23:05:41.101Z,19.72
2022-08-05T23:08:12.270Z,19.68
2022-08-05T23:10:42.798Z,19.63
2022-08-05T23:13:09.620Z,19.63
2022-08-05T23:15:38.905Z,19.58
2022-08-05T23:18:11.670Z,19.56
2022-08-05T23:20:39.301Z,19.51
2022-08-05T23:23:10.117Z,19.50
2022-08-05T23:25:53.302Z,19.49
2022-08-05T23:28:23.965Z,19.43
2022-08-05T23:31:16.473Z,19.41
2022-08-05T23:34:04.197Z,19.33
2022-08-05T23:36:38.774Z,19.28
2022-08-05T23:39:17.192Z,19.23
2022-08-05T23:41:51.138Z,19.21
2022-08-05T23:44:19.812Z,19.21
2022-08-05T23:46:58.964Z,19.20
2022-08-05T23:49:36.028Z,19.15
2022-08-05T23:52:25.189Z,19.11
2022-08-05T23:54:54.536Z,19.10
2022-08-05T23:57:28.283Z,19.09
